Time;durP1;ratioP1;P1;durP2;ratioP2;P2;SDS_P1;SDS_P2;PMS_P1;PMS_P2;Temp;Humidity;BMP_temperature;BMP_pressure;BME280_temperature;BME280_humidity;BME280_pressure;Samples;Min_cycle;Max_cycle;Signal;HPM_P1;HPM_P2
2024/01/02 00:00:43;;;;;;;3.97;1.50;;;;;;;-141.84;89.95;48370.84;5055394;28;20221;-61
2024/01/02 00:03:12;;;;;;;5.27;1.90;;;;;;;-141.84;91.99;59129.22;5052641;28;20294;-65
2024/01/02 00:05:40;;;;;;;4.30;1.40;;;;;;;-141.84;90.19;53615.19;5053338;28;20235;-61
2024/01/02 00:08:09;;;;;;;2.70;1.60;;;;;;;-141.84;89.20;46013.16;5053038;28;20228;-61
2024/01/02 00:10:37;;;;;;;5.63;1.57;;;;;;;-141.84;88.43;43133.44;5053126;28;20221;-60
2024/01/02 00:13:06;;;;;;;6.40;1.57;;;;;;;-141.84;89.51;47060.84;5052919;28;20676;-61
2024/01/02 00:15:36;;;;;;;6.50;1.70;;;;;;;-141.84;88.07;40292.63;5053182;28;20254;-60
2024/01/02 00:18:05;;;;;;;3.60;1.37;;;;;;;-141.84;87.85;37396.69;5052681;28;20221;-60
2024/01/02 00:20:33;;;;;;;5.10;1.50;;;;;;;-141.84;89.99;48632.88;5052660;28;20232;-60
2024/01/02 00:23:02;;;;;;;3.80;1.40;;;;;;;-141.84;90.53;54664.88;5052932;28;20243;-61
2024/01/02 00:25:31;;;;;;;4.80;1.40;;;;;;;-141.84;90.42;53877.56;5049930;28;20239;-59
2024/01/02 00:28:00;;;;;;;4.70;1.20;;;;;;;-141.84;90.48;51778.88;5052902;28;20289;-59
2024/01/02 00:30:31;;;;;;;2.90;1.30;;;;;;;-141.84;93.61;65966.75;5053049;28;20682;-59
2024/01/02 00:33:03;;;;;;;3.50;1.13;;;;;;;-141.84;95.46;74134.56;5052561;28;20240;-59
2024/01/02 00:35:32;;;;;;;3.07;1.10;;;;;;;-141.84;96.63;79148.88;5052325;28;20347;-58
2024/01/02 00:38:02;;;;;;;4.23;1.30;;;;;;;-141.84;96.27;79412.97;5052555;28;20315;-58
2024/01/02 00:40:31;;;;;;;3.57;1.30;;;;;;;-141.84;96.47;79677.06;5052370;28;20294;-59
2024/01/02 00:42:59;;;;;;;3.50;1.20;;;;;;;-141.84;96.86;79677.06;5053038;28;20278;-58
2024/01/02 00:45:28;;;;;;;2.20;1.03;;;;;;;-141.84;97.44;82583.34;5049937;28;20214;-58
2024/01/02 00:47:58;;;;;;;3.80;1.20;;;;;;;-141.84;96.44;78884.81;5051968;28;20273;-58
2024/01/02 00:50:28;;;;;;;2.70;1.13;;;;;;;-141.84;97.89;83640.72;5052210;28;20712;-59
2024/01/02 00:52:56;;;;;;;2.17;1.30;;;;;;;-141.84;96.60;80733.66;5052150;28;20224;-59
2024/01/02 00:55:25;;;;;;;5.27;1.73;;;;;;;-141.84;96.55;79941.19;5050996;28;20233;-59
2024/01/02 00:57:53;;;;;;;2.97;1.43;;;;;;;-141.84;95.40;76772.88;5050203;28;20334;-58
2024/01/02 01:00:22;;;;;;;2.27;0.90;;;;;;;-141.84;95.26;75717.34;5052035;28;20268;-60
2024/01/02 01:02:50;;;;;;;3.00;0.90;;;;;;;-141.84;95.90;78092.72;5051591;28;20305;-60
2024/01/02 01:05:19;;;;;;;4.03;1.33;;;;;;;-141.84;96.07;79941.19;5051997;28;20225;-60
2024/01/02 01:07:49;;;;;;;4.77;1.17;;;;;;;-141.84;95.94;78884.81;5051999;28;20599;-61
2024/01/02 01:10:18;;;;;;;2.80;0.80;;;;;;;-141.84;93.17;70443.78;5052210;28;20208;-60
2024/01/02 01:12:46;;;;;;;5.07;1.00;;;;;;;-141.84;93.88;71234.38;5051865;28;20276;-62
2024/01/02 01:15:15;;;;;;;2.10;0.90;;;;;;;-141.84;97.24;81790.53;5051702;28;20303;-61
2024/01/02 01:17:43;;;;;;;1.97;1.07;;;;;;;-141.84;97.83;84698.34;5051646;28;20691;-60
2024/01/02 01:20:12;;;;;;;4.20;1.10;;;;;;;-141.84;94.64;76772.88;5051409;28;20217;-60
2024/01/02 01:22:41;;;;;;;3.53;0.80;;;;;;;-141.84;94.81;76245.09;5051684;28;20225;-61
2024/01/02 01:25:11;;;;;;;4.03;0.90;;;;;;;-141.84;95.65;78356.72;5047206;28;20543;-61
2024/01/02 01:27:39;;;;;;;3.53;1.13;;;;;;;-141.84;94.56;75981.22;5051729;28;20209;-61
2024/01/02 01:30:09;;;;;;;3.10;1.10;;;;;;;-141.84;93.90;73343.38;5051186;28;20229;-60
2024/01/02 01:32:38;;;;;;;2.57;0.83;;;;;;;-141.84;94.38;74925.88;5051426;28;20220;-59
2024/01/02 01:35:08;;;;;;;2.00;0.83;;;;;;;-141.84;97.01;82319.06;5051118;28;20303;-59
2024/01/02 01:37:36;;;;;;;4.87;0.93;;;;;;;-141.84;98.17;86285.31;5051409;28;20229;-59
2024/01/02 01:40:06;;;;;;;2.40;1.00;;;;;;;-141.84;97.73;84169.50;5051712;28;20663;-59
2024/01/02 01:42:36;;;;;;;2.40;0.90;;;;;;;-141.84;94.11;75981.22;5051615;28;20201;-59
2024/01/02 01:45:05;;;;;;;2.20;0.80;;;;;;;-141.84;94.85;74662.09;5051182;28;20756;-58
2024/01/02 01:47:34;;;;;;;2.63;0.90;;;;;;;-141.84;97.54;84698.34;5051085;28;20252;-59
2024/01/02 01:50:03;;;;;;;2.43;0.90;;;;;;;-141.84;93.06;69916.81;5050901;28;20247;-59
2024/01/02 01:52:32;;;;;;;2.17;1.00;;;;;;;-141.84;93.88;71497.94;5051272;28;20586;-59
2024/01/02 01:55:01;;;;;;;2.57;0.73;;;;;;;-141.84;94.52;75189.69;5051198;28;20196;-59
2024/01/02 01:57:30;;;;;;;2.80;1.20;;;;;;;-141.84;95.14;76772.88;5049721;28;20308;-59
2024/01/02 02:00:00;;;;;;;3.80;1.00;;;;;;;-141.84;94.30;74398.31;5050853;28;20692;-60
2024/01/02 02:02:29;;;;;;;2.70;1.20;;;;;;;-141.84;92.58;70180.31;5050925;28;20306;-61
2024/01/02 02:04:58;;;;;;;2.20;1.00;;;;;;;-141.84;90.59;60180.38;5050843;28;20259;-61
2024/01/02 02:07:28;;;;;;;3.83;1.80;;;;;;;-141.84;88.93;51254.38;5050963;28;20228;-60
2024/01/02 02:09:57;;;;;;;2.77;1.20;;;;;;;-141.84;90.23;56502.53;5050656;28;20712;-61
2024/01/02 02:12:25;;;;;;;5.07;1.93;;;;;;;-141.84;89.17;53877.56;5050977;28;20599;-61
2024/01/02 02:14:54;;;;;;;5.70;1.47;;;;;;;-141.84;87.48;42871.75;5050617;28;20305;-60
2024/01/02 02:17:41;;;;;;;4.70;1.53;;;;;;;-141.84;87.65;44442.13;5045298;28;20223;-61
2024/01/02 02:20:10;;;;;;;3.57;1.40;;;;;;;-141.84;88.70;48108.81;5045155;28;20224;-61
2024/01/02 02:22:39;;;;;;;5.23;1.83;;;;;;;-141.84;89.59;55977.41;5050706;28;20229;-61
2024/01/02 02:25:10;;;;;;;3.93;1.50;;;;;;;-141.84;87.20;40360.03;5049960;28;20194;-61
2024/01/02 02:27:39;;;;;;;4.07;1.47;;;;;;;-141.84;88.56;49681.28;5050841;28;20840;-61
2024/01/02 02:30:08;;;;;;;5.30;1.50;;;;;;;-141.84;88.58;49419.16;5049292;28;20223;-61
2024/01/02 02:32:36;;;;;;;3.53;1.53;;;;;;;-141.84;87.88;46536.97;5050364;28;20225;-61
2024/01/02 02:35:06;;;;;;;6.13;1.30;;;;;;;-141.84;87.85;43395.16;5050298;28;20222;-61
2024/01/02 02:37:35;;;;;;;5.40;1.57;;;;;;;-141.84;90.07;54664.88;5042103;28;20727;-61
2024/01/02 02:40:04;;;;;;;4.70;1.43;;;;;;;-141.84;92.08;67019.72;5050215;28;20638;-61
2024/01/02 02:42:34;;;;;;;4.23;1.40;;;;;;;-141.84;91.48;62020.59;5050658;28;20274;-61
2024/01/02 02:45:04;;;;;;;5.43;2.03;;;;;;;-141.84;88.31;49419.16;5050171;28;20244;-61
2024/01/02 02:47:33;;;;;;;5.93;1.77;;;;;;;-141.84;85.94;34325.41;5050417;28;20611;-61
2024/01/02 02:50:01;;;;;;;4.57;1.67;;;;;;;-141.84;88.38;48632.88;5049798;28;20226;-61
2024/01/02 02:52:30;;;;;;;8.40;1.93;;;;;;;-141.84;89.13;53877.56;5050203;28;20312;-61
2024/01/02 02:54:59;;;;;;;4.93;1.80;;;;;;;-141.84;89.48;52828.09;5050298;28;20646;-61
2024/01/02 02:57:27;;;;;;;4.53;1.60;;;;;;;-141.84;90.08;57815.66;5048763;28;20295;-61
2024/01/02 02:59:57;;;;;;;7.03;1.90;;;;;;;-141.84;88.10;47060.84;5049993;28;20614;-61
2024/01/02 03:02:28;;;;;;;4.23;1.50;;;;;;;-141.84;87.68;44703.94;5049955;28;20233;-61
2024/01/02 03:04:57;;;;;;;5.10;1.90;;;;;;;-141.84;87.58;43918.63;5042127;28;20611;-61
2024/01/02 03:07:26;;;;;;;3.77;1.60;;;;;;;-141.84;86.23;35684.22;5050353;28;20229;-60
2024/01/02 03:09:55;;;;;;;7.27;1.93;;;;;;;-141.84;86.02;34943.53;5050574;28;20281;-61
2024/01/02 03:12:24;;;;;;;8.80;2.00;;;;;;;-141.84;87.46;42348.44;5049655;28;20259;-61
2024/01/02 03:14:52;;;;;;;6.70;2.00;;;;;;;-141.84;86.87;38772.91;5049768;28;20245;-61
2024/01/02 03:17:22;;;;;;;5.57;2.00;;;;;;;-141.84;88.63;49419.16;5049892;28;20261;-61
2024/01/02 03:19:51;;;;;;;4.67;1.90;;;;;;;-141.84;89.46;53877.56;5049664;28;20752;-60
2024/01/02 03:22:20;;;;;;;6.83;1.80;;;;;;;-141.84;91.07;60443.22;5049715;28;20443;-61
2024/01/02 03:24:49;;;;;;;6.97;2.23;;;;;;;-141.84;93.07;71234.38;5048290;28;20791;-61
2024/01/02 03:27:17;;;;;;;6.07;1.83;;;;;;;-141.84;94.19;74925.88;5049428;28;20224;-61
2024/01/02 03:29:46;;;;;;;5.17;1.70;;;;;;;-141.84;95.17;78092.72;5045975;28;20222;-61
2024/01/02 03:32:14;;;;;;;5.87;1.90;;;;;;;-141.84;95.74;82054.78;5049821;28;20685;-60
2024/01/02 03:34:44;;;;;;;5.80;1.90;;;;;;;-141.84;98.19;87872.91;5049808;28;20229;-60
2024/01/02 03:37:14;;;;;;;6.13;2.00;;;;;;;-141.84;98.06;88666.94;5049079;28;20602;-58
2024/01/02 03:39:43;;;;;;;6.60;2.33;;;;;;;-141.84;98.38;89990.66;5054058;28;20205;-60
2024/01/02 03:42:12;;;;;;;6.43;1.90;;;;;;;-141.84;100.00;95555.09;5053353;28;20309;-58
2024/01/02 03:44:40;;;;;;;5.83;1.70;;;;;;;-141.84;100.00;95024.81;5051991;28;20256;-58
2024/01/02 03:47:09;;;;;;;6.73;1.90;;;;;;;-141.84;100.00;100596.16;5053342;28;20803;-58
2024/01/02 03:49:37;;;;;;;7.60;2.10;;;;;;;-141.84;100.00;103783.25;5053478;28;20600;-59
2024/01/02 03:52:07;;;;;;;4.30;1.80;;;;;;;-141.84;100.00;107770.63;5053419;28;20262;-59
2024/01/02 03:54:36;;;;;;;7.60;2.00;;;;;;;-141.84;100.00;111229.50;5053752;28;20287;-60
2024/01/02 03:57:05;;;;;;;6.93;2.00;;;;;;;-141.84;100.00;113625.81;5044660;28;20834;-58
2024/01/02 03:59:36;;;;;;;7.23;2.67;;;;;;;-141.84;100.00;115224.16;5053000;28;20704;-59
2024/01/02 04:02:05;;;;;;;7.50;2.87;;;;;;;-141.84;100.00;114957.72;5053169;28;20221;-59
2024/01/02 04:04:35;;;;;;;8.00;2.67;;;;;;;-141.84;100.00;114957.72;5053427;28;20240;-61
2024/01/02 04:07:03;;;;;;;3.70;1.77;;;;;;;-141.84;100.00;116823.13;5053331;28;20255;-61
2024/01/02 04:09:33;;;;;;;3.60;1.97;;;;;;;-141.84;100.00;118156.06;5053393;28;20236;-61
2024/01/02 04:12:02;;;;;;;7.53;2.00;;;;;;;-141.84;100.00;119222.75;5052677;28;20283;-61
2024/01/02 04:14:30;;;;;;;6.03;1.80;;;;;;;-141.84;100.00;119224.81;5053139;28;20248;-61
2024/01/02 04:16:59;;;;;;;3.83;1.70;;;;;;;-141.84;100.00;119224.81;5052708;28;20221;-61
2024/01/02 04:19:27;;;;;;;5.50;1.87;;;;;;;-141.84;100.00;119222.75;5052686;28;20643;-61
2024/01/02 04:21:56;;;;;;;6.27;1.73;;;;;;;-141.84;100.00;119224.81;5053430;28;20217;-61
2024/01/02 04:24:25;;;;;;;6.93;1.90;;;;;;;-141.84;100.00;119224.81;5052659;28;20702;-61
2024/01/02 04:26:55;;;;;;;4.43;1.60;;;;;;;-141.84;100.00;119224.81;5052311;28;20260;-61
2024/01/02 04:29:24;;;;;;;6.43;1.80;;;;;;;-141.84;100.00;119224.81;5052960;28;20279;-61
2024/01/02 04:31:52;;;;;;;3.57;1.50;;;;;;;-141.84;100.00;119224.81;5051866;28;20225;-61
2024/01/02 04:34:21;;;;;;;6.10;1.83;;;;;;;-141.84;100.00;119224.81;5044685;28;20257;-61
2024/01/02 04:36:49;;;;;;;7.43;1.70;;;;;;;-141.84;100.00;119224.81;5053320;28;20288;-61
2024/01/02 04:39:19;;;;;;;5.93;1.73;;;;;;;-141.84;100.00;119224.81;5052031;28;20249;-61
2024/01/02 04:41:48;;;;;;;3.53;1.57;;;;;;;-141.84;100.00;119224.81;5052181;28;20412;-60
2024/01/02 04:44:18;;;;;;;7.43;1.97;;;;;;;-141.84;100.00;119224.81;5052488;28;20343;-61
2024/01/02 04:46:47;;;;;;;4.13;1.60;;;;;;;-141.84;100.00;119224.81;5051826;28;20295;-60
2024/01/02 04:49:15;;;;;;;4.87;1.57;;;;;;;-141.84;100.00;119224.81;5051976;28;20242;-61
2024/01/02 04:51:44;;;;;;;4.87;2.23;;;;;;;-141.84;100.00;119224.81;5052649;28;20376;-61
2024/01/02 04:54:13;;;;;;;7.73;1.97;;;;;;;-141.84;100.00;119224.81;5051800;28;20734;-61
2024/01/02 04:56:41;;;;;;;3.97;1.80;;;;;;;-141.84;100.00;119224.81;5051876;28;20296;-62
2024/01/02 04:59:10;;;;;;;5.57;1.97;;;;;;;-141.84;100.00;119224.81;5051689;28;20231;-62
2024/01/02 05:01:40;;;;;;;5.90;2.23;;;;;;;-141.84;100.00;119224.81;5051744;28;20244;-61
2024/01/02 05:04:09;;;;;;;5.27;1.90;;;;;;;-141.84;100.00;119224.81;5052294;28;20606;-61
2024/01/02 05:06:37;;;;;;;5.83;1.97;;;;;;;-141.84;100.00;119224.81;5052325;28;20266;-61
2024/01/02 05:09:08;;;;;;;5.50;1.63;;;;;;;-141.84;100.00;119224.81;5051895;28;20573;-61
2024/01/02 05:11:37;;;;;;;6.73;1.97;;;;;;;-141.84;100.00;119224.81;5051882;28;20284;-61
2024/01/02 05:14:06;;;;;;;6.90;2.30;;;;;;;-141.84;100.00;119224.81;5051749;28;20226;-61
2024/01/02 05:16:34;;;;;;;5.17;1.80;;;;;;;-141.84;100.00;119224.81;5051781;28;20214;-61
2024/01/02 05:19:05;;;;;;;3.23;1.40;;;;;;;-141.84;100.00;119224.81;5051536;28;20249;-61
2024/01/02 05:21:33;;;;;;;5.20;1.80;;;;;;;-141.84;100.00;119224.81;5052149;28;20255;-62
2024/01/02 05:24:02;;;;;;;5.30;1.90;;;;;;;-141.84;100.00;119224.81;5051438;28;20213;-62
2024/01/02 05:26:31;;;;;;;6.43;1.87;;;;;;;-141.84;100.00;119224.81;5051499;28;20218;-62
2024/01/02 05:28:59;;;;;;;3.83;1.80;;;;;;;-141.84;100.00;119224.81;5051288;28;20240;-61
2024/01/02 05:31:28;;;;;;;7.53;1.80;;;;;;;-141.84;100.00;119224.81;5051671;28;20268;-61
2024/01/02 05:33:56;;;;;;;5.20;1.70;;;;;;;-141.84;100.00;119224.81;5051589;28;20201;-62
2024/01/02 05:36:26;;;;;;;5.67;1.70;;;;;;;-141.84;100.00;119224.81;5051550;28;20229;-62
2024/01/02 05:38:55;;;;;;;6.27;1.60;;;;;;;-141.84;100.00;119224.81;5046203;28;20635;-61
2024/01/02 05:41:23;;;;;;;3.50;1.43;;;;;;;-141.84;100.00;119224.81;5048729;28;20241;-61
2024/01/02 05:43:52;;;;;;;5.43;1.70;;;;;;;-141.84;100.00;119224.81;5051358;28;20217;-61
2024/01/02 05:46:20;;;;;;;6.83;2.00;;;;;;;-141.84;100.00;119224.81;5051149;28;20323;-62
2024/01/02 05:48:49;;;;;;;6.23;1.60;;;;;;;-141.84;100.00;119224.81;5051293;28;20228;-62
2024/01/02 05:51:18;;;;;;;6.90;1.83;;;;;;;-141.84;100.00;119224.81;5051026;28;20684;-62
2024/01/02 05:53:48;;;;;;;4.60;2.10;;;;;;;-141.84;100.00;119224.81;5051090;28;20221;-62
2024/01/02 05:56:17;;;;;;;4.37;1.50;;;;;;;-141.84;100.00;119224.81;5050868;28;20228;-62
2024/01/02 05:58:46;;;;;;;4.80;1.93;;;;;;;-141.84;100.00;119224.81;5036421;28;20312;-62
2024/01/02 06:01:14;;;;;;;4.00;1.87;;;;;;;-141.84;100.00;119224.81;5050492;28;20229;-62
2024/01/02 06:03:43;;;;;;;2.63;1.43;;;;;;;-141.84;100.00;119224.81;5043231;28;20193;-62
2024/01/02 06:06:11;;;;;;;6.30;1.80;;;;;;;-141.84;100.00;119224.81;5050882;28;20250;-62
2024/01/02 06:08:45;;;;;;;7.23;1.83;;;;;;;-141.84;100.00;119224.81;5050615;28;20227;-62
2024/01/02 06:11:15;;;;;;;4.50;1.90;;;;;;;-141.84;100.00;119224.81;5050544;28;20221;-62
2024/01/02 06:13:44;;;;;;;2.10;1.53;;;;;;;-141.84;100.00;119224.81;5050929;28;20232;-62
2024/01/02 06:16:12;;;;;;;4.87;1.90;;;;;;;-141.84;100.00;119224.81;5050246;28;20599;-62
2024/01/02 06:18:41;;;;;;;8.80;2.07;;;;;;;-141.84;100.00;119224.81;5051158;28;20248;-62
2024/01/02 06:21:10;;;;;;;4.43;1.77;;;;;;;-141.84;100.00;119224.81;5050541;28;20239;-62
2024/01/02 06:23:39;;;;;;;4.40;2.27;;;;;;;-141.84;100.00;119224.81;5050317;28;20218;-62
2024/01/02 06:26:19;;;;;;;4.93;2.10;;;;;;;-141.84;100.00;119224.81;5050634;28;20228;-62
2024/01/02 06:28:48;;;;;;;6.43;2.03;;;;;;;-141.84;100.00;119224.81;5045047;28;20218;-62
2024/01/02 06:31:19;;;;;;;4.90;2.10;;;;;;;-141.84;100.00;119224.81;5047990;28;20193;-62
2024/01/02 06:33:48;;;;;;;4.43;1.90;;;;;;;-141.84;100.00;119224.81;5047930;28;20292;-62
2024/01/02 06:36:17;;;;;;;5.57;2.00;;;;;;;-141.84;100.00;119224.81;5050574;28;20225;-62
2024/01/02 06:38:46;;;;;;;5.37;1.90;;;;;;;-141.84;100.00;119224.81;5049443;28;20253;-62
2024/01/02 06:41:15;;;;;;;4.67;1.57;;;;;;;-141.84;100.00;119224.81;5050295;28;20286;-63
2024/01/02 06:43:44;;;;;;;3.87;1.80;;;;;;;-141.84;100.00;119224.81;5050428;28;20228;-63
2024/01/02 06:46:13;;;;;;;3.77;1.80;;;;;;;-141.84;100.00;119224.81;5050402;28;20280;-63
2024/01/02 06:48:42;;;;;;;4.33;1.80;;;;;;;-141.84;100.00;119224.81;5050819;28;20204;-62
2024/01/02 06:51:11;;;;;;;4.67;2.00;;;;;;;-141.84;100.00;119224.81;5050203;28;20750;-62
2024/01/02 06:53:39;;;;;;;5.20;1.30;;;;;;;-141.84;100.00;119224.81;5050433;28;20225;-62
2024/01/02 06:56:08;;;;;;;5.37;1.77;;;;;;;-141.84;100.00;119224.81;5050374;28;20287;-62
2024/01/02 06:58:37;;;;;;;5.13;1.80;;;;;;;-141.84;100.00;119224.81;5049605;28;20294;-62
2024/01/02 07:01:07;;;;;;;4.43;2.30;;;;;;;-141.84;100.00;119224.81;5055469;28;20630;-61
2024/01/02 07:03:36;;;;;;;2.73;1.60;;;;;;;-141.84;100.00;119224.81;5050788;28;20200;-62
2024/01/02 07:06:06;;;;;;;3.60;1.63;;;;;;;-141.84;100.00;119224.81;5050226;28;20326;-62
2024/01/02 07:08:35;;;;;;;2.77;1.37;;;;;;;-141.84;100.00;119224.81;5049974;28;20225;-62
2024/01/02 07:11:04;;;;;;;4.23;1.90;;;;;;;-141.84;100.00;119224.81;5051722;28;20219;-62
2024/01/02 07:13:33;;;;;;;5.23;1.90;;;;;;;-141.84;100.00;119224.81;5053926;28;20233;-62
2024/01/02 07:16:01;;;;;;;4.77;1.37;;;;;;;-141.84;100.00;119224.81;5053694;28;20725;-63
2024/01/02 07:18:31;;;;;;;2.87;1.90;;;;;;;-141.84;100.00;119224.81;5054849;28;20276;-63
2024/01/02 07:21:00;;;;;;;5.30;1.80;;;;;;;-141.84;100.00;119224.81;5053787;28;20241;-63
2024/01/02 07:23:28;;;;;;;5.97;1.90;;;;;;;-141.84;100.00;119224.81;5044027;28;20226;-61
2024/01/02 07:25:57;;;;;;;3.43;1.80;;;;;;;-141.84;100.00;119224.81;5047204;28;20298;-65
2024/01/02 07:28:26;;;;;;;3.33;1.67;;;;;;;-141.84;100.00;119224.81;5053442;28;20235;-63
2024/01/02 07:30:55;;;;;;;3.37;1.63;;;;;;;-141.84;100.00;119224.81;5052535;28;21601;-65
2024/01/02 07:33:23;;;;;;;4.83;1.40;;;;;;;-141.84;100.00;119224.81;5051683;28;20225;-61
2024/01/02 07:35:53;;;;;;;4.10;1.60;;;;;;;-141.84;100.00;119224.81;5053269;28;20688;-60
2024/01/02 07:38:26;;;;;;;4.37;1.60;;;;;;;-141.84;100.00;119224.81;5045472;28;20235;-61
2024/01/02 07:40:54;;;;;;;3.80;1.47;;;;;;;-141.84;100.00;119224.81;5050437;28;20232;-60
2024/01/02 07:43:24;;;;;;;3.67;1.57;;;;;;;-141.84;100.00;119224.81;5051384;28;20779;-62
2024/01/02 07:45:53;;;;;;;2.07;1.40;;;;;;;-141.84;100.00;119224.81;5053877;28;20189;-61
2024/01/02 07:48:21;;;;;;;3.67;1.40;;;;;;;-141.84;100.00;119224.81;5053446;28;20286;-61
2024/01/02 07:50:50;;;;;;;3.07;1.60;;;;;;;-141.84;100.00;119224.81;5053133;28;20275;-62
2024/01/02 07:53:20;;;;;;;4.57;1.40;;;;;;;-141.84;100.00;119224.81;5053340;28;20295;-61
2024/01/02 07:55:49;;;;;;;3.63;1.30;;;;;;;-141.84;100.00;119224.81;5049851;28;20699;-62
2024/01/02 07:58:18;;;;;;;2.13;1.10;;;;;;;-141.84;100.00;119224.81;5052989;28;20294;-63
2024/01/02 08:00:46;;;;;;;2.80;1.50;;;;;;;-141.84;100.00;119224.81;5053549;28;20218;-62
2024/01/02 08:03:15;;;;;;;2.53;1.60;;;;;;;-141.84;100.00;119224.81;5053103;28;20225;-61
2024/01/02 08:05:44;;;;;;;3.10;1.40;;;;;;;-141.84;100.00;119224.81;5045052;28;20241;-60
2024/01/02 08:08:12;;;;;;;1.83;1.20;;;;;;;-141.84;100.00;119224.81;5053353;28;20221;-61
2024/01/02 08:10:43;;;;;;;1.20;1.10;;;;;;;-141.84;100.00;119224.81;5052942;28;20244;-61
2024/01/02 08:13:11;;;;;;;1.80;1.10;;;;;;;-141.84;100.00;119224.81;5053005;28;20197;-62
2024/01/02 08:15:40;;;;;;;1.67;1.10;;;;;;;-141.84;100.00;119224.81;5053273;28;20204;-62
2024/01/02 08:18:10;;;;;;;1.83;1.03;;;;;;;-141.84;100.00;119224.81;5052874;28;20793;-62
2024/01/02 08:20:39;;;;;;;1.53;1.10;;;;;;;-141.84;100.00;119224.81;5053077;28;20314;-63
2024/01/02 08:23:08;;;;;;;1.50;1.30;;;;;;;-141.84;100.00;118956.03;5052275;28;20225;-61
2024/01/02 08:25:37;;;;;;;1.90;1.03;;;;;;;-141.84;100.00;119222.75;5052274;28;20732;-59
2024/01/02 08:28:07;;;;;;;1.40;1.13;;;;;;;-141.84;100.00;119224.81;5052909;28;20602;-61
2024/01/02 08:30:36;;;;;;;1.60;1.20;;;;;;;-141.84;100.00;119224.81;5052888;28;20200;-61
2024/01/02 08:33:05;;;;;;;1.50;1.27;;;;;;;-141.84;100.00;118956.03;5045027;28;20742;-60
2024/01/02 08:35:34;;;;;;;3.03;1.10;;;;;;;-141.84;100.00;117356.25;5052375;28;20225;-61
2024/01/02 08:38:03;;;;;;;3.23;1.10;;;;;;;-141.84;100.00;117089.69;5052606;28;20320;-62
2024/01/02 08:40:32;;;;;;;2.23;1.17;;;;;;;-141.84;100.00;118956.03;5052420;28;20323;-62
2024/01/02 08:43:01;;;;;;;1.87;0.80;;;;;;;-141.84;100.00;119224.81;5053101;28;20204;-61
2024/01/02 08:45:30;;;;;;;1.87;1.00;;;;;;;-141.84;100.00;119224.81;5053131;28;20285;-62
2024/01/02 08:47:59;;;;;;;1.30;0.90;;;;;;;-141.84;100.00;119224.81;5052538;28;20225;-61
2024/01/02 08:50:29;;;;;;;1.37;0.70;;;;;;;-141.84;100.00;119224.81;5052045;28;20581;-61
2024/01/02 08:52:58;;;;;;;1.47;0.90;;;;;;;-141.84;100.00;119224.81;5052359;28;20708;-62
2024/01/02 08:55:27;;;;;;;0.80;0.80;;;;;;;-141.84;100.00;119224.81;5051837;28;20253;-61
2024/01/02 08:57:55;;;;;;;0.70;0.70;;;;;;;-141.84;100.00;119222.75;5045014;28;20230;-61
2024/01/02 09:00:24;;;;;;;0.90;0.70;;;;;;;-141.84;100.00;118156.06;5051473;28;20766;-62
2024/01/02 09:02:54;;;;;;;2.13;0.90;;;;;;;-141.84;100.00;116823.13;5051439;28;20676;-62
2024/01/02 09:05:23;;;;;;;1.33;0.87;;;;;;;-141.84;100.00;116290.06;5051537;28;20247;-61
2024/01/02 09:07:52;;;;;;;1.43;0.90;;;;;;;-141.84;100.00;116823.13;5051747;28;20263;-61
2024/01/02 09:10:20;;;;;;;1.53;0.77;;;;;;;-141.84;100.00;117622.84;5051772;28;21392;-61
2024/01/02 09:12:49;;;;;;;1.57;0.70;;;;;;;-141.84;100.00;114691.31;5052074;28;20251;-62
2024/01/02 09:15:19;;;;;;;0.67;0.67;;;;;;;-141.84;100.00;112560.63;5051606;28;20308;-60
2024/01/02 09:17:48;;;;;;;0.70;0.67;;;;;;;-141.84;100.00;111761.88;5051228;28;20227;-58
2024/01/02 09:20:18;;;;;;;1.77;0.80;;;;;;;-141.84;100.00;111229.50;5051267;28;20739;-60
2024/01/02 09:22:47;;;;;;;0.60;0.60;;;;;;;-141.84;100.00;110697.16;5051475;28;20231;-61
2024/01/02 09:25:17;;;;;;;0.90;0.80;;;;;;;-141.84;100.00;109898.81;5051382;28;20197;-59
2024/01/02 09:27:47;;;;;;;0.83;0.60;;;;;;;-141.84;100.00;109366.66;5043263;28;20645;-61
2024/01/02 09:30:15;;;;;;;0.60;0.57;;;;;;;-141.84;100.00;105111.94;5051047;28;20775;-50
2024/01/02 09:32:44;;;;;;;0.50;0.50;;;;;;;-141.84;100.00;102986.25;5050249;28;20749;-56
2024/01/02 09:35:13;;;;;;;0.60;0.60;;;;;;;-141.84;100.00;106175.19;5050368;28;20261;-56
2024/01/02 09:37:43;;;;;;;0.83;0.83;;;;;;;-141.84;100.00;102986.25;5050937;28;20225;-58
2024/01/02 09:40:24;;;;;;;0.70;0.57;;;;;;;-141.84;100.00;101658.25;5050532;28;20209;-55
2024/01/02 09:43:05;;;;;;;1.20;0.83;;;;;;;-141.84;100.00;104048.94;5051346;28;20262;-56
2024/01/02 09:45:48;;;;;;;1.03;0.90;;;;;;;-141.84;100.00;106441.06;5050853;28;20842;-57
2024/01/02 09:48:47;;;;;;;0.60;0.60;;;;;;;-141.84;100.00;108302.56;5050548;28;20228;-57
2024/01/02 09:51:26;;;;;;;0.50;0.50;;;;;;;-141.84;100.00;109898.81;5038697;28;20217;-56
2024/01/02 09:54:12;;;;;;;0.73;0.53;;;;;;;-141.84;100.00;109100.59;5050294;28;20926;-56
2024/01/02 09:56:48;;;;;;;0.70;0.70;;;;;;;-141.84;100.00;110963.31;5050224;28;20234;-59
2024/01/02 09:59:34;;;;;;;0.70;0.53;;;;;;;-141.84;100.00;113093.19;5040291;28;20239;-56
2024/01/02 10:02:24;;;;;;;0.70;0.70;;;;;;;-141.84;100.00;113625.81;5047597;28;20669;-58
2024/01/02 10:05:08;;;;;;;1.10;0.90;;;;;;;-141.84;100.00;111229.50;5042952;28;20225;-57
2024/01/02 10:08:02;;;;;;;1.00;0.80;;;;;;;-141.84;100.00;114158.53;5041903;28;20229;-59
2024/01/02 10:10:37;;;;;;;0.83;0.70;;;;;;;-141.84;100.00;114158.53;5054864;28;20268;-60
2024/01/02 10:13:24;;;;;;;0.93;0.60;;;;;;;-141.84;100.00;116023.56;5041317;28;20582;-62
2024/01/02 10:16:06;;;;;;;1.63;1.00;;;;;;;-141.84;100.00;116556.59;5048301;28;20810;-59
2024/01/02 10:18:52;;;;;;;0.60;0.60;;;;;;;-141.84;100.00;109898.81;5046614;28;20300;-59
2024/01/02 10:21:30;;;;;;;1.13;0.67;;;;;;;-141.84;100.00;110697.16;5050154;28;20243;-62
2024/01/02 10:24:12;;;;;;;0.60;0.60;;;;;;;-141.84;100.00;109898.81;5050124;28;20241;-61
2024/01/02 10:26:49;;;;;;;0.80;0.70;;;;;;;-141.84;100.00;110431.03;5042278;28;20771;-62
2024/01/02 10:29:28;;;;;;;0.63;0.60;;;;;;;-141.84;100.00;103517.56;5049091;28;20574;-63
2024/01/02 10:32:04;;;;;;;0.73;0.53;;;;;;;-141.84;100.00;100330.69;5056414;28;20228;-62
2024/01/02 10:34:38;;;;;;;1.03;0.93;;;;;;;-141.84;100.00;102720.59;5042777;28;20260;-61
2024/01/02 10:37:07;;;;;;;1.17;0.80;;;;;;;-141.84;99.74;97411.59;5048608;28;20236;-60
2024/01/02 10:39:43;;;;;;;2.03;0.77;;;;;;;-141.84;100.00;98472.84;5049309;28;20201;-60
2024/01/02 10:42:33;;;;;;;0.90;0.70;;;;;;;-141.84;97.36;89196.38;5048568;28;20229;-60
2024/01/02 10:45:16;;;;;;;1.13;0.33;;;;;;;-141.84;99.32;92904.41;5043070;28;20827;-60
2024/01/02 10:48:01;;;;;;;0.50;0.50;;;;;;;-141.84;99.63;94759.69;5047801;28;20248;-63
2024/01/02 10:50:35;;;;;;;0.50;0.50;;;;;;;-141.84;95.39;81262.06;5049231;28;20225;-62
2024/01/02 10:53:20;;;;;;;0.97;0.57;;;;;;;-141.84;95.42;82847.66;5049745;28;20232;-59
2024/01/02 10:55:51;;;;;;;0.57;0.57;;;;;;;-141.84;97.18;87608.25;5049627;28;20237;-61
2024/01/02 10:58:24;;;;;;;0.60;0.60;;;;;;;-141.84;98.32;90785.09;5043680;28;20190;-61
2024/01/02 11:01:04;;;;;;;0.60;0.50;;;;;;;-141.84;97.42;89725.88;5050380;28;20715;-60
2024/01/02 11:03:41;;;;;;;0.30;0.30;;;;;;;-141.84;94.93;80997.84;5042558;28;20209;-61
2024/01/02 11:06:16;;;;;;;0.60;0.60;;;;;;;-141.84;95.63;82847.66;5049686;28;20217;-60
2024/01/02 11:08:54;;;;;;;0.57;0.50;;;;;;;-141.84;97.24;88137.56;5041963;28;20692;-60
2024/01/02 11:11:24;;;;;;;0.50;0.50;;;;;;;-141.84;94.22;78620.75;5040307;28;20231;-61
2024/01/02 11:13:54;;;;;;;0.47;0.43;;;;;;;-141.84;92.49;72816.03;5043601;28;20244;-60
2024/01/02 11:16:26;;;;;;;0.40;0.40;;;;;;;-141.84;92.60;72025.13;5043027;28;20279;-62
2024/01/02 11:18:59;;;;;;;0.80;0.73;;;;;;;-141.84;93.06;74134.56;5044124;28;20209;-61
2024/01/02 11:21:38;;;;;;;1.33;0.50;;;;;;;-141.84;89.66;60180.38;5052477;28;20225;-61